Tolhuin, Argentina

1:03 AM ART on January 25, 2015 (GMT -0300)
Ushuaia International Malvine Island | Change Station
CLOSE
Current Station
Airport
Location: Ushuaia,
Elevation: 69 ft
Nearby Weather Stations

Elev 69 ft 54.84 °S, 68.31 °W | Updated 1 hour ago

Partly Cloudy
Partly Cloudy
46 °F
Feels Like 41 °F
N
13
Wind Variable Wind from West

Today
High -- | Low -- °F
--% Chance of Precip.
Yesterday
High -- | Low -- °F
Precip. -- in
5:37 AM 9:43 PM
Waxing Crescent, 28% visible
Pressure 29.74 in
Visibility 6.2 miles
Clouds Few 3500 ft
Windchill 41 °F
Dew Point 32 °F
Humidity 57%
Rainfall 0.00 in
Snow Depth Not available.
UV 0 out of 12
Pollen Not available.
Air Quality Not available.
Flu Activity Not available.
METAR SAWH 250300Z 27011KT 9999 FEW035 08/00 Q1007

More Conditions Fewer Conditions

Pressure 29.74 in
Visibility 6.2 miles
Clouds Few 3500 ft
Windchill 41 °F
Dew Point 32 °F
Humidity 57%
Rainfall 0.00 in
Snow Depth Not available.
UV 0 out of 12
Pollen Not available.
Air Quality Not available.
Flu Activity Not available.
METAR SAWH 250300Z 27011KT 9999 FEW035 08/00 Q1007

More Conditions Fewer Conditions

10-Day Weather Forecast

Almanac

Astronomy

Jan. 25, 2015 Rise Set
Actual Time
Civil Twilight
Nautical Twilight
Astronomical Twilight
Moon
Length of Visible Light
Length of Day
Tomorrow will be .
, % of the Moon is Illuminated

Today's Extremes

Country Highs Country Lows

Community

WunderPhotos

Upload Photos

1,789,833 photos uploaded!

WunderBlogs® & News

Nearby

Air Quality

  Air Quality AQ Index Pollutant
Not available.

Snow Depth

Station Depth Elevation

Earthquake Activity

City Distance Mag. Time & Date
Minimum magnitude displayed is 2.5.

Coastal Water Temperatures

Place Temperature

Nearby Weather Stations